sensor_id;sensor_type;location;lat;lon;timestamp;temperature;humidity
4209;DHT22;36320;48.860;2.380;2022-12-18T00:01:04;5.10;57.00
4209;DHT22;36320;48.860;2.380;2022-12-18T00:03:35;5.10;56.80
4209;DHT22;36320;48.860;2.380;2022-12-18T00:06:01;5.10;56.60
4209;DHT22;36320;48.860;2.380;2022-12-18T00:08:28;5.10;56.30
4209;DHT22;36320;48.860;2.380;2022-12-18T00:10:53;5.10;56.30
4209;DHT22;36320;48.860;2.380;2022-12-18T00:13:19;5.10;56.10
4209;DHT22;36320;48.860;2.380;2022-12-18T00:15:45;5.10;55.80
4209;DHT22;36320;48.860;2.380;2022-12-18T00:18:10;5.10;55.70
4209;DHT22;36320;48.860;2.380;2022-12-18T00:20:37;5.20;55.80
4209;DHT22;36320;48.860;2.380;2022-12-18T00:23:04;5.50;55.90
4209;DHT22;36320;48.860;2.380;2022-12-18T00:25:33;5.20;55.70
4209;DHT22;36320;48.860;2.380;2022-12-18T00:27:58;5.20;55.60
4209;DHT22;36320;48.860;2.380;2022-12-18T00:30:24;5.20;55.60
4209;DHT22;36320;48.860;2.380;2022-12-18T00:32:49;5.20;55.50
4209;DHT22;36320;48.860;2.380;2022-12-18T00:35:17;5.30;55.50
4209;DHT22;36320;48.860;2.380;2022-12-18T00:37:43;5.30;55.40
4209;DHT22;36320;48.860;2.380;2022-12-18T00:40:09;5.30;55.30
4209;DHT22;36320;48.860;2.380;2022-12-18T00:42:35;5.30;55.30
4209;DHT22;36320;48.860;2.380;2022-12-18T00:45:23;5.30;55.30
4209;DHT22;36320;48.860;2.380;2022-12-18T00:47:48;5.30;55.30
4209;DHT22;36320;48.860;2.380;2022-12-18T00:50:14;5.30;55.20
4209;DHT22;36320;48.860;2.380;2022-12-18T00:52:40;5.30;55.10
4209;DHT22;36320;48.860;2.380;2022-12-18T00:55:06;5.30;55.00
4209;DHT22;36320;48.860;2.380;2022-12-18T00:57:38;5.40;55.10
4209;DHT22;36320;48.860;2.380;2022-12-18T01:00:07;5.30;54.90
4209;DHT22;36320;48.860;2.380;2022-12-18T01:02:33;5.40;55.00
4209;DHT22;36320;48.860;2.380;2022-12-18T01:04:59;5.40;55.00
4209;DHT22;36320;48.860;2.380;2022-12-18T01:07:24;5.50;55.00
4209;DHT22;36320;48.860;2.380;2022-12-18T01:09:50;5.50;55.00
4209;DHT22;36320;48.860;2.380;2022-12-18T01:12:16;5.50;54.90
4209;DHT22;36320;48.860;2.380;2022-12-18T01:14:42;5.60;54.80
4209;DHT22;36320;48.860;2.380;2022-12-18T01:17:07;5.60;54.70
4209;DHT22;36320;48.860;2.380;2022-12-18T01:19:33;5.50;54.50
4209;DHT22;36320;48.860;2.380;2022-12-18T01:21:59;5.60;54.60
4209;DHT22;36320;48.860;2.380;2022-12-18T01:24:25;5.50;54.40
4209;DHT22;36320;48.860;2.380;2022-12-18T01:26:50;5.60;54.30
4209;DHT22;36320;48.860;2.380;2022-12-18T01:29:16;5.50;54.20
4209;DHT22;36320;48.860;2.380;2022-12-18T01:31:42;5.60;54.20
4209;DHT22;36320;48.860;2.380;2022-12-18T01:34:09;5.70;54.30
4209;DHT22;36320;48.860;2.380;2022-12-18T01:36:36;5.60;54.20
4209;DHT22;36320;48.860;2.380;2022-12-18T01:39:13;5.60;54.20
4209;DHT22;36320;48.860;2.380;2022-12-18T01:41:39;5.60;54.70
4209;DHT22;36320;48.860;2.380;2022-12-18T01:50:03;5.60;54.00
4209;DHT22;36320;48.860;2.380;2022-12-18T01:52:31;5.60;54.00
4209;DHT22;36320;48.860;2.380;2022-12-18T01:54:57;6.00;54.40
4209;DHT22;36320;48.860;2.380;2022-12-18T01:57:25;5.60;54.00
4209;DHT22;36320;48.860;2.380;2022-12-18T01:59:53;5.60;54.10
4209;DHT22;36320;48.860;2.380;2022-12-18T02:02:20;5.60;53.90
4209;DHT22;36320;48.860;2.380;2022-12-18T02:04:46;5.60;53.80
4209;DHT22;36320;48.860;2.380;2022-12-18T02:07:26;5.60;53.70
4209;DHT22;36320;48.860;2.380;2022-12-18T02:10:00;5.50;53.60
4209;DHT22;36320;48.860;2.380;2022-12-18T02:12:51;5.50;53.50
4209;DHT22;36320;48.860;2.380;2022-12-18T02:15:19;5.40;53.50
4209;DHT22;36320;48.860;2.380;2022-12-18T02:17:54;5.40;53.50
4209;DHT22;36320;48.860;2.380;2022-12-18T02:28:04;5.50;53.70
4209;DHT22;36320;48.860;2.380;2022-12-18T02:30:33;5.50;53.60
4209;DHT22;36320;48.860;2.380;2022-12-18T02:33:01;5.50;53.60
4209;DHT22;36320;48.860;2.380;2022-12-18T02:35:30;5.50;53.50
4209;DHT22;36320;48.860;2.380;2022-12-18T02:37:57;5.60;53.50
4209;DHT22;36320;48.860;2.380;2022-12-18T02:40:25;5.50;53.50
4209;DHT22;36320;48.860;2.380;2022-12-18T02:42:52;5.50;53.50
4209;DHT22;36320;48.860;2.380;2022-12-18T02:45:18;5.50;53.40
4209;DHT22;36320;48.860;2.380;2022-12-18T02:47:47;5.40;53.30
4209;DHT22;36320;48.860;2.380;2022-12-18T02:50:27;5.40;53.30
4209;DHT22;36320;48.860;2.380;2022-12-18T03:01:25;5.50;53.60
4209;DHT22;36320;48.860;2.380;2022-12-18T03:04:01;5.50;53.70
4209;DHT22;36320;48.860;2.380;2022-12-18T03:06:32;5.50;53.60
4209;DHT22;36320;48.860;2.380;2022-12-18T03:09:03;5.40;53.40
4209;DHT22;36320;48.860;2.380;2022-12-18T03:11:34;5.40;53.40
4209;DHT22;36320;48.860;2.380;2022-12-18T03:14:21;5.50;53.50
4209;DHT22;36320;48.860;2.380;2022-12-18T03:16:52;5.40;53.30
4209;DHT22;36320;48.860;2.380;2022-12-18T03:19:22;5.40;53.10
4209;DHT22;36320;48.860;2.380;2022-12-18T03:21:55;5.40;53.20
4209;DHT22;36320;48.860;2.380;2022-12-18T03:24:22;5.40;53.20
4209;DHT22;36320;48.860;2.380;2022-12-18T03:26:52;5.40;53.20
4209;DHT22;36320;48.860;2.380;2022-12-18T03:29:25;5.30;53.10
4209;DHT22;36320;48.860;2.380;2022-12-18T03:31:56;5.30;53.10
4209;DHT22;36320;48.860;2.380;2022-12-18T03:34:29;5.30;53.10
4209;DHT22;36320;48.860;2.380;2022-12-18T03:36:56;5.30;53.30
4209;DHT22;36320;48.860;2.380;2022-12-18T03:39:24;5.30;53.30
4209;DHT22;36320;48.860;2.380;2022-12-18T03:53:20;5.30;53.40
4209;DHT22;36320;48.860;2.380;2022-12-18T03:55:49;5.40;53.60
4209;DHT22;36320;48.860;2.380;2022-12-18T03:58:20;5.40;53.50
4209;DHT22;36320;48.860;2.380;2022-12-18T04:00:50;5.40;53.50
4209;DHT22;36320;48.860;2.380;2022-12-18T04:03:18;5.40;53.40
4209;DHT22;36320;48.860;2.380;2022-12-18T04:05:45;5.40;53.30
4209;DHT22;36320;48.860;2.380;2022-12-18T04:08:13;5.30;53.10
4209;DHT22;36320;48.860;2.380;2022-12-18T04:10:39;5.30;53.20
4209;DHT22;36320;48.860;2.380;2022-12-18T04:13:05;5.30;53.30
4209;DHT22;36320;48.860;2.380;2022-12-18T04:15:35;5.30;53.90
4209;DHT22;36320;48.860;2.380;2022-12-18T04:18:01;5.30;53.20
4209;DHT22;36320;48.860;2.380;2022-12-18T04:20:27;5.30;53.10
4209;DHT22;36320;48.860;2.380;2022-12-18T04:22:53;5.30;53.10
4209;DHT22;36320;48.860;2.380;2022-12-18T04:25:18;5.30;53.10
4209;DHT22;36320;48.860;2.380;2022-12-18T04:27:44;5.20;53.00
4209;DHT22;36320;48.860;2.380;2022-12-18T04:30:10;5.20;53.00
4209;DHT22;36320;48.860;2.380;2022-12-18T04:32:36;5.20;53.00
4209;DHT22;36320;48.860;2.380;2022-12-18T04:35:02;5.50;53.40
4209;DHT22;36320;48.860;2.380;2022-12-18T04:37:29;5.30;53.30
4209;DHT22;36320;48.860;2.380;2022-12-18T04:39:55;5.30;53.40
4209;DHT22;36320;48.860;2.380;2022-12-18T04:42:21;5.30;53.30
4209;DHT22;36320;48.860;2.380;2022-12-18T04:44:46;6.00;53.90
4209;DHT22;36320;48.860;2.380;2022-12-18T04:47:12;5.30;53.20
4209;DHT22;36320;48.860;2.380;2022-12-18T04:49:38;5.30;53.30
4209;DHT22;36320;48.860;2.380;2022-12-18T04:52:03;5.30;53.30
4209;DHT22;36320;48.860;2.380;2022-12-18T04:54:29;5.30;53.30
4209;DHT22;36320;48.860;2.380;2022-12-18T04:56:55;5.30;53.30
4209;DHT22;36320;48.860;2.380;2022-12-18T04:59:20;5.30;53.40
4209;DHT22;36320;48.860;2.380;2022-12-18T05:01:46;5.20;53.20
4209;DHT22;36320;48.860;2.380;2022-12-18T05:04:12;5.20;53.20
4209;DHT22;36320;48.860;2.380;2022-12-18T05:06:37;5.30;53.30
4209;DHT22;36320;48.860;2.380;2022-12-18T05:09:03;5.20;53.30
4209;DHT22;36320;48.860;2.380;2022-12-18T05:11:28;5.20;53.30
4209;DHT22;36320;48.860;2.380;2022-12-18T05:13:54;5.20;53.30
4209;DHT22;36320;48.860;2.380;2022-12-18T05:16:20;5.40;53.40
4209;DHT22;36320;48.860;2.380;2022-12-18T05:18:45;5.20;53.40
4209;DHT22;36320;48.860;2.380;2022-12-18T05:21:11;5.20;53.40
4209;DHT22;36320;48.860;2.380;2022-12-18T05:23:37;5.40;53.60
4209;DHT22;36320;48.860;2.380;2022-12-18T05:26:05;5.20;53.50
4209;DHT22;36320;48.860;2.380;2022-12-18T05:28:32;5.10;53.30
4209;DHT22;36320;48.860;2.380;2022-12-18T05:31:00;5.10;53.40
4209;DHT22;36320;48.860;2.380;2022-12-18T05:33:30;5.10;53.40
4209;DHT22;36320;48.860;2.380;2022-12-18T05:35:59;5.50;53.80
4209;DHT22;36320;48.860;2.380;2022-12-18T05:38:26;5.20;53.60
4209;DHT22;36320;48.860;2.380;2022-12-18T05:40:52;4.70;53.10
4209;DHT22;36320;48.860;2.380;2022-12-18T05:43:18;4.80;53.20
4209;DHT22;36320;48.860;2.380;2022-12-18T05:45:45;5.30;53.80
4209;DHT22;36320;48.860;2.380;2022-12-18T05:48:14;5.20;53.60
4209;DHT22;36320;48.860;2.380;2022-12-18T05:50:42;5.20;53.60
4209;DHT22;36320;48.860;2.380;2022-12-18T05:53:09;5.20;53.60
4209;DHT22;36320;48.860;2.380;2022-12-18T05:55:35;5.20;53.50
4209;DHT22;36320;48.860;2.380;2022-12-18T05:58:03;5.20;53.50
4209;DHT22;36320;48.860;2.380;2022-12-18T06:00:29;5.20;53.50
4209;DHT22;36320;48.860;2.380;2022-12-18T06:02:55;5.20;53.50
4209;DHT22;36320;48.860;2.380;2022-12-18T06:05:21;5.20;53.50
4209;DHT22;36320;48.860;2.380;2022-12-18T06:07:47;5.30;53.60
4209;DHT22;36320;48.860;2.380;2022-12-18T06:10:12;5.20;53.50
4209;DHT22;36320;48.860;2.380;2022-12-18T06:12:38;5.30;53.50
4209;DHT22;36320;48.860;2.380;2022-12-18T06:15:04;5.30;53.60
4209;DHT22;36320;48.860;2.380;2022-12-18T06:17:31;5.30;53.60
4209;DHT22;36320;48.860;2.380;2022-12-18T06:19:57;5.30;53.50
4209;DHT22;36320;48.860;2.380;2022-12-18T06:22:23;5.30;53.50
4209;DHT22;36320;48.860;2.380;2022-12-18T06:24:49;5.30;53.40
4209;DHT22;36320;48.860;2.380;2022-12-18T06:27:15;5.30;53.30
4209;DHT22;36320;48.860;2.380;2022-12-18T06:29:40;5.20;53.20
4209;DHT22;36320;48.860;2.380;2022-12-18T06:32:06;5.20;53.30
4209;DHT22;36320;48.860;2.380;2022-12-18T06:34:33;5.20;53.20
4209;DHT22;36320;48.860;2.380;2022-12-18T06:36:59;5.20;53.40
4209;DHT22;36320;48.860;2.380;2022-12-18T06:39:26;5.20;53.30
4209;DHT22;36320;48.860;2.380;2022-12-18T06:41:52;5.20;53.40
4209;DHT22;36320;48.860;2.380;2022-12-18T06:44:18;5.20;53.30
4209;DHT22;36320;48.860;2.380;2022-12-18T06:46:43;5.20;53.30
4209;DHT22;36320;48.860;2.380;2022-12-18T06:49:09;5.30;53.40
4209;DHT22;36320;48.860;2.380;2022-12-18T06:51:35;5.20;53.20
4209;DHT22;36320;48.860;2.380;2022-12-18T06:54:01;5.30;53.30
4209;DHT22;36320;48.860;2.380;2022-12-18T06:56:26;5.20;53.20
4209;DHT22;36320;48.860;2.380;2022-12-18T06:58:52;5.20;53.20
4209;DHT22;36320;48.860;2.380;2022-12-18T07:01:21;5.20;53.20
4209;DHT22;36320;48.860;2.380;2022-12-18T07:03:51;5.20;53.20
4209;DHT22;36320;48.860;2.380;2022-12-18T07:06:20;5.20;53.20
4209;DHT22;36320;48.860;2.380;2022-12-18T07:08:47;5.20;53.20
4209;DHT22;36320;48.860;2.380;2022-12-18T07:11:13;5.30;53.30
4209;DHT22;36320;48.860;2.380;2022-12-18T07:13:39;5.30;53.20
4209;DHT22;36320;48.860;2.380;2022-12-18T07:16:06;5.30;53.20
4209;DHT22;36320;48.860;2.380;2022-12-18T07:18:32;5.20;53.00
4209;DHT22;36320;48.860;2.380;2022-12-18T07:21:01;5.20;53.00
4209;DHT22;36320;48.860;2.380;2022-12-18T07:23:27;5.20;53.00
4209;DHT22;36320;48.860;2.380;2022-12-18T07:25:53;5.20;53.00
4209;DHT22;36320;48.860;2.380;2022-12-18T07:28:18;5.20;53.10
4209;DHT22;36320;48.860;2.380;2022-12-18T07:30:44;5.60;53.40
4209;DHT22;36320;48.860;2.380;2022-12-18T07:33:09;5.30;53.10
4209;DHT22;36320;48.860;2.380;2022-12-18T07:35:38;5.30;53.00
4209;DHT22;36320;48.860;2.380;2022-12-18T07:38:04;5.30;53.00
4209;DHT22;36320;48.860;2.380;2022-12-18T07:40:29;5.30;53.00
4209;DHT22;36320;48.860;2.380;2022-12-18T07:42:55;5.30;53.00
4209;DHT22;36320;48.860;2.380;2022-12-18T07:45:21;5.30;52.90
4209;DHT22;36320;48.860;2.380;2022-12-18T07:47:46;5.30;52.80
4209;DHT22;36320;48.860;2.380;2022-12-18T07:50:12;5.20;52.70
4209;DHT22;36320;48.860;2.380;2022-12-18T07:52:38;5.20;52.70
4209;DHT22;36320;48.860;2.380;2022-12-18T07:55:04;5.20;52.70
4209;DHT22;36320;48.860;2.380;2022-12-18T07:57:30;5.20;52.70
4209;DHT22;36320;48.860;2.380;2022-12-18T07:59:56;5.20;52.80
4209;DHT22;36320;48.860;2.380;2022-12-18T08:02:22;5.20;52.70
4209;DHT22;36320;48.860;2.380;2022-12-18T08:04:47;5.50;53.00
4209;DHT22;36320;48.860;2.380;2022-12-18T08:07:13;5.20;52.70
4209;DHT22;36320;48.860;2.380;2022-12-18T08:09:38;5.20;52.80
4209;DHT22;36320;48.860;2.380;2022-12-18T08:12:05;5.20;52.80
4209;DHT22;36320;48.860;2.380;2022-12-18T08:14:30;5.20;52.80
4209;DHT22;36320;48.860;2.380;2022-12-18T08:16:56;5.40;52.90
4209;DHT22;36320;48.860;2.380;2022-12-18T08:19:22;5.40;53.00
4209;DHT22;36320;48.860;2.380;2022-12-18T08:21:48;5.20;52.90
4209;DHT22;36320;48.860;2.380;2022-12-18T08:24:13;5.30;52.90
4209;DHT22;36320;48.860;2.380;2022-12-18T08:26:39;5.10;52.70
4209;DHT22;36320;48.860;2.380;2022-12-18T08:29:05;4.50;53.00
4209;DHT22;36320;48.860;2.380;2022-12-18T08:31:31;4.10;53.60
4209;DHT22;36320;48.860;2.380;2022-12-18T08:33:57;4.00;54.30
4209;DHT22;36320;48.860;2.380;2022-12-18T08:36:23;3.70;54.40
4209;DHT22;36320;48.860;2.380;2022-12-18T08:38:49;3.60;54.90
4209;DHT22;36320;48.860;2.380;2022-12-18T08:41:16;3.60;55.00
4209;DHT22;36320;48.860;2.380;2022-12-18T08:43:42;3.40;54.90
4209;DHT22;36320;48.860;2.380;2022-12-18T08:46:32;3.40;55.10
4209;DHT22;36320;48.860;2.380;2022-12-18T08:49:01;3.20;55.30
4209;DHT22;36320;48.860;2.380;2022-12-18T08:51:26;3.30;55.50
4209;DHT22;36320;48.860;2.380;2022-12-18T08:53:52;3.40;55.70
4209;DHT22;36320;48.860;2.380;2022-12-18T08:56:18;3.40;55.70
4209;DHT22;36320;48.860;2.380;2022-12-18T08:58:44;3.50;56.50
4209;DHT22;36320;48.860;2.380;2022-12-18T09:01:11;3.50;55.80
4209;DHT22;36320;48.860;2.380;2022-12-18T09:03:38;3.60;55.80
4209;DHT22;36320;48.860;2.380;2022-12-18T09:06:04;3.50;55.70
4209;DHT22;36320;48.860;2.380;2022-12-18T09:08:30;3.50;55.70
4209;DHT22;36320;48.860;2.380;2022-12-18T09:10:56;3.60;55.80
4209;DHT22;36320;48.860;2.380;2022-12-18T09:13:22;3.60;55.70
4209;DHT22;36320;48.860;2.380;2022-12-18T09:15:53;3.60;55.80
4209;DHT22;36320;48.860;2.380;2022-12-18T09:18:21;3.50;55.80
4209;DHT22;36320;48.860;2.380;2022-12-18T09:20:47;3.50;55.90
4209;DHT22;36320;48.860;2.380;2022-12-18T09:23:14;3.50;55.90
4209;DHT22;36320;48.860;2.380;2022-12-18T09:25:40;3.60;55.80
4209;DHT22;36320;48.860;2.380;2022-12-18T09:28:17;3.60;55.90
4209;DHT22;36320;48.860;2.380;2022-12-18T09:30:48;3.70;56.00
4209;DHT22;36320;48.860;2.380;2022-12-18T09:33:15;3.70;56.00
4209;DHT22;36320;48.860;2.380;2022-12-18T09:35:42;3.70;56.00
4209;DHT22;36320;48.860;2.380;2022-12-18T09:38:11;3.70;56.00
4209;DHT22;36320;48.860;2.380;2022-12-18T09:40:55;3.80;56.00
4209;DHT22;36320;48.860;2.380;2022-12-18T09:43:43;3.80;55.80
4209;DHT22;36320;48.860;2.380;2022-12-18T09:46:17;3.80;56.00
4209;DHT22;36320;48.860;2.380;2022-12-18T09:48:49;4.50;56.50
4209;DHT22;36320;48.860;2.380;2022-12-18T09:51:20;3.80;55.90
4209;DHT22;36320;48.860;2.380;2022-12-18T09:53:52;3.80;56.00
4209;DHT22;36320;48.860;2.380;2022-12-18T09:56:22;4.10;56.10
4209;DHT22;36320;48.860;2.380;2022-12-18T09:58:58;4.00;55.90
4209;DHT22;36320;48.860;2.380;2022-12-18T10:01:27;4.00;56.00
4209;DHT22;36320;48.860;2.380;2022-12-18T10:03:56;4.10;56.00
4209;DHT22;36320;48.860;2.380;2022-12-18T10:17:20;4.30;55.80
4209;DHT22;36320;48.860;2.380;2022-12-18T10:25:34;4.30;55.70
4209;DHT22;36320;48.860;2.380;2022-12-18T10:28:08;4.40;55.80
4209;DHT22;36320;48.860;2.380;2022-12-18T10:30:36;4.50;55.70
4209;DHT22;36320;48.860;2.380;2022-12-18T10:33:03;4.50;55.70
4209;DHT22;36320;48.860;2.380;2022-12-18T10:35:29;4.60;55.70
4209;DHT22;36320;48.860;2.380;2022-12-18T10:40:30;4.80;55.60
4209;DHT22;36320;48.860;2.380;2022-12-18T10:43:11;4.80;55.50
4209;DHT22;36320;48.860;2.380;2022-12-18T10:45:37;4.90;55.60
4209;DHT22;36320;48.860;2.380;2022-12-18T10:48:03;4.90;55.40
4209;DHT22;36320;48.860;2.380;2022-12-18T10:50:30;5.00;55.40
4209;DHT22;36320;48.860;2.380;2022-12-18T10:52:59;5.00;55.30
4209;DHT22;36320;48.860;2.380;2022-12-18T10:55:35;5.10;55.30
4209;DHT22;36320;48.860;2.380;2022-12-18T10:58:25;4.90;55.40
4209;DHT22;36320;48.860;2.380;2022-12-18T11:01:14;4.90;55.40
4209;DHT22;36320;48.860;2.380;2022-12-18T11:04:01;5.00;55.50
4209;DHT22;36320;48.860;2.380;2022-12-18T11:06:27;5.10;55.40
4209;DHT22;36320;48.860;2.380;2022-12-18T11:11:53;5.10;55.40
4209;DHT22;36320;48.860;2.380;2022-12-18T11:14:32;5.10;55.40
4209;DHT22;36320;48.860;2.380;2022-12-18T11:16:59;5.10;55.30
4209;DHT22;36320;48.860;2.380;2022-12-18T11:22:03;5.10;55.50
4209;DHT22;36320;48.860;2.380;2022-12-18T11:24:43;5.10;55.40
4209;DHT22;36320;48.860;2.380;2022-12-18T11:27:19;5.20;55.40
4209;DHT22;36320;48.860;2.380;2022-12-18T11:29:49;5.20;55.30
4209;DHT22;36320;48.860;2.380;2022-12-18T11:37:53;5.30;55.30
4209;DHT22;36320;48.860;2.380;2022-12-18T11:40:33;5.40;55.40
4209;DHT22;36320;48.860;2.380;2022-12-18T11:43:29;5.50;55.40
4209;DHT22;36320;48.860;2.380;2022-12-18T11:46:05;5.50;55.30
4209;DHT22;36320;48.860;2.380;2022-12-18T11:48:44;5.60;55.40
4209;DHT22;36320;48.860;2.380;2022-12-18T11:51:25;5.70;55.30
4209;DHT22;36320;48.860;2.380;2022-12-18T11:53:52;5.70;55.30
4209;DHT22;36320;48.860;2.380;2022-12-18T11:59:16;5.90;55.20
4209;DHT22;36320;48.860;2.380;2022-12-18T12:01:55;5.90;55.10
4209;DHT22;36320;48.860;2.380;2022-12-18T12:04:45;6.00;55.20
4209;DHT22;36320;48.860;2.380;2022-12-18T12:07:37;6.10;55.10
4209;DHT22;36320;48.860;2.380;2022-12-18T12:21:13;6.10;54.90
4209;DHT22;36320;48.860;2.380;2022-12-18T12:26:37;6.30;54.90
4209;DHT22;36320;48.860;2.380;2022-12-18T12:29:24;6.30;54.90
4209;DHT22;36320;48.860;2.380;2022-12-18T12:32:04;6.30;54.80
4209;DHT22;36320;48.860;2.380;2022-12-18T12:34:43;6.30;54.80
4209;DHT22;36320;48.860;2.380;2022-12-18T12:40:01;6.30;54.80
4209;DHT22;36320;48.860;2.380;2022-12-18T12:42:58;6.30;54.70
4209;DHT22;36320;48.860;2.380;2022-12-18T12:48:10;6.40;54.80
4209;DHT22;36320;48.860;2.380;2022-12-18T12:50:41;6.20;54.60
4209;DHT22;36320;48.860;2.380;2022-12-18T12:53:11;6.40;54.90
4209;DHT22;36320;48.860;2.380;2022-12-18T12:55:40;6.40;54.90
4209;DHT22;36320;48.860;2.380;2022-12-18T12:58:29;6.50;55.00
4209;DHT22;36320;48.860;2.380;2022-12-18T13:01:01;6.60;55.00
4209;DHT22;36320;48.860;2.380;2022-12-18T13:03:37;6.70;55.00
4209;DHT22;36320;48.860;2.380;2022-12-18T13:06:33;6.70;54.90
4209;DHT22;36320;48.860;2.380;2022-12-18T13:09:01;6.70;55.00
4209;DHT22;36320;48.860;2.380;2022-12-18T13:11:55;6.60;55.00
4209;DHT22;36320;48.860;2.380;2022-12-18T13:14:45;6.60;55.00
4209;DHT22;36320;48.860;2.380;2022-12-18T13:17:15;6.60;55.00
4209;DHT22;36320;48.860;2.380;2022-12-18T13:19:44;6.60;55.10
4209;DHT22;36320;48.860;2.380;2022-12-18T13:22:24;6.60;55.10
4209;DHT22;36320;48.860;2.380;2022-12-18T13:24:50;6.50;55.10
4209;DHT22;36320;48.860;2.380;2022-12-18T13:27:55;6.50;55.20
4209;DHT22;36320;48.860;2.380;2022-12-18T13:38:37;6.50;55.60
4209;DHT22;36320;48.860;2.380;2022-12-18T13:43:50;6.50;55.70
4209;DHT22;36320;48.860;2.380;2022-12-18T13:48:52;6.50;56.00
4209;DHT22;36320;48.860;2.380;2022-12-18T13:51:19;6.40;56.00
4209;DHT22;36320;48.860;2.380;2022-12-18T13:53:54;6.40;56.10
4209;DHT22;36320;48.860;2.380;2022-12-18T13:56:26;6.40;56.30
4209;DHT22;36320;48.860;2.380;2022-12-18T13:59:18;6.40;56.30
4209;DHT22;36320;48.860;2.380;2022-12-18T14:01:47;6.50;56.40
4209;DHT22;36320;48.860;2.380;2022-12-18T14:04:22;6.50;56.50
4209;DHT22;36320;48.860;2.380;2022-12-18T14:06:52;6.50;56.50
4209;DHT22;36320;48.860;2.380;2022-12-18T14:09:26;6.60;56.50
4209;DHT22;36320;48.860;2.380;2022-12-18T14:11:57;6.60;56.50
4209;DHT22;36320;48.860;2.380;2022-12-18T14:14:48;6.60;56.60
4209;DHT22;36320;48.860;2.380;2022-12-18T14:17:19;6.60;56.70
4209;DHT22;36320;48.860;2.380;2022-12-18T14:19:47;6.60;56.70
4209;DHT22;36320;48.860;2.380;2022-12-18T14:22:23;6.60;56.80
4209;DHT22;36320;48.860;2.380;2022-12-18T14:28:00;6.60;57.00
4209;DHT22;36320;48.860;2.380;2022-12-18T14:30:31;6.60;57.00
4209;DHT22;36320;48.860;2.380;2022-12-18T14:33:02;6.70;57.20
4209;DHT22;36320;48.860;2.380;2022-12-18T14:35:29;6.70;57.20
4209;DHT22;36320;48.860;2.380;2022-12-18T14:38:10;6.70;57.30
4209;DHT22;36320;48.860;2.380;2022-12-18T14:40:36;6.70;57.40
4209;DHT22;36320;48.860;2.380;2022-12-18T14:43:02;6.70;57.50
4209;DHT22;36320;48.860;2.380;2022-12-18T14:45:42;6.70;57.50
4209;DHT22;36320;48.860;2.380;2022-12-18T14:48:24;6.70;57.70
4209;DHT22;36320;48.860;2.380;2022-12-18T14:51:02;6.70;57.70
4209;DHT22;36320;48.860;2.380;2022-12-18T14:53:44;6.70;57.80
4209;DHT22;36320;48.860;2.380;2022-12-18T14:56:26;6.70;57.90
4209;DHT22;36320;48.860;2.380;2022-12-18T15:02:03;6.70;58.10
4209;DHT22;36320;48.860;2.380;2022-12-18T15:04:36;6.80;58.20
4209;DHT22;36320;48.860;2.380;2022-12-18T15:07:14;6.80;58.30
4209;DHT22;36320;48.860;2.380;2022-12-18T15:10:02;6.80;58.30
4209;DHT22;36320;48.860;2.380;2022-12-18T15:12:37;6.90;58.40
4209;DHT22;36320;48.860;2.380;2022-12-18T15:15:05;7.10;58.60
4209;DHT22;36320;48.860;2.380;2022-12-18T15:18:18;6.80;58.50
4209;DHT22;36320;48.860;2.380;2022-12-18T15:20:56;6.80;58.60
4209;DHT22;36320;48.860;2.380;2022-12-18T15:23:28;6.90;58.80
4209;DHT22;36320;48.860;2.380;2022-12-18T15:26:00;6.90;58.80
4209;DHT22;36320;48.860;2.380;2022-12-18T15:36:18;6.80;58.90
4209;DHT22;36320;48.860;2.380;2022-12-18T15:38:48;6.80;59.00
4209;DHT22;36320;48.860;2.380;2022-12-18T15:41:17;6.90;59.00
4209;DHT22;36320;48.860;2.380;2022-12-18T15:43:43;6.80;59.10
4209;DHT22;36320;48.860;2.380;2022-12-18T15:46:16;6.80;59.20
4209;DHT22;36320;48.860;2.380;2022-12-18T15:48:51;6.80;59.20
4209;DHT22;36320;48.860;2.380;2022-12-18T15:51:26;6.80;59.20
4209;DHT22;36320;48.860;2.380;2022-12-18T15:53:55;6.90;59.30
4209;DHT22;36320;48.860;2.380;2022-12-18T15:56:22;6.90;59.40
4209;DHT22;36320;48.860;2.380;2022-12-18T15:59:14;6.90;59.50
4209;DHT22;36320;48.860;2.380;2022-12-18T16:01:45;6.90;59.60
4209;DHT22;36320;48.860;2.380;2022-12-18T16:04:12;6.90;59.60
4209;DHT22;36320;48.860;2.380;2022-12-18T16:06:39;6.40;59.20
4209;DHT22;36320;48.860;2.380;2022-12-18T16:09:04;6.80;59.60
4209;DHT22;36320;48.860;2.380;2022-12-18T16:11:33;6.80;59.80
4209;DHT22;36320;48.860;2.380;2022-12-18T16:16:37;6.90;59.80
4209;DHT22;36320;48.860;2.380;2022-12-18T16:19:03;6.90;59.80
4209;DHT22;36320;48.860;2.380;2022-12-18T16:21:29;6.90;59.90
4209;DHT22;36320;48.860;2.380;2022-12-18T16:23:55;7.00;60.00
4209;DHT22;36320;48.860;2.380;2022-12-18T16:26:24;7.00;60.10
4209;DHT22;36320;48.860;2.380;2022-12-18T16:28:50;7.00;61.00
4209;DHT22;36320;48.860;2.380;2022-12-18T16:31:19;7.00;60.40
4209;DHT22;36320;48.860;2.380;2022-12-18T16:34:02;7.10;60.60
4209;DHT22;36320;48.860;2.380;2022-12-18T16:36:33;7.10;60.70
4209;DHT22;36320;48.860;2.380;2022-12-18T16:38:59;7.00;61.10
4209;DHT22;36320;48.860;2.380;2022-12-18T16:41:25;7.00;61.30
4209;DHT22;36320;48.860;2.380;2022-12-18T16:43:57;7.10;61.50
4209;DHT22;36320;48.860;2.380;2022-12-18T16:46:23;7.10;61.60
4209;DHT22;36320;48.860;2.380;2022-12-18T16:48:52;7.10;61.70
4209;DHT22;36320;48.860;2.380;2022-12-18T16:51:18;7.10;61.80
4209;DHT22;36320;48.860;2.380;2022-12-18T16:53:43;7.20;62.80
4209;DHT22;36320;48.860;2.380;2022-12-18T16:56:09;7.20;62.10
4209;DHT22;36320;48.860;2.380;2022-12-18T16:58:36;7.20;62.20
4209;DHT22;36320;48.860;2.380;2022-12-18T17:01:09;7.20;62.30
4209;DHT22;36320;48.860;2.380;2022-12-18T17:03:35;7.20;62.40
4209;DHT22;36320;48.860;2.380;2022-12-18T17:06:04;7.30;62.60
4209;DHT22;36320;48.860;2.380;2022-12-18T17:08:31;7.20;62.60
4209;DHT22;36320;48.860;2.380;2022-12-18T17:11:07;7.10;62.80
4209;DHT22;36320;48.860;2.380;2022-12-18T17:13:35;7.20;63.00
4209;DHT22;36320;48.860;2.380;2022-12-18T17:16:08;7.20;63.10
4209;DHT22;36320;48.860;2.380;2022-12-18T17:18:34;7.30;63.20
4209;DHT22;36320;48.860;2.380;2022-12-18T17:21:01;7.20;63.30
4209;DHT22;36320;48.860;2.380;2022-12-18T17:23:27;7.30;63.50
4209;DHT22;36320;48.860;2.380;2022-12-18T17:25:57;7.30;63.50
4209;DHT22;36320;48.860;2.380;2022-12-18T17:28:24;7.30;63.80
4209;DHT22;36320;48.860;2.380;2022-12-18T17:30:54;7.30;64.00
4209;DHT22;36320;48.860;2.380;2022-12-18T17:33:22;7.30;64.10
4209;DHT22;36320;48.860;2.380;2022-12-18T17:35:48;7.30;64.40
4209;DHT22;36320;48.860;2.380;2022-12-18T17:38:15;7.40;64.70
4209;DHT22;36320;48.860;2.380;2022-12-18T17:40:41;7.40;64.80
4209;DHT22;36320;48.860;2.380;2022-12-18T17:43:09;7.40;65.10
4209;DHT22;36320;48.860;2.380;2022-12-18T17:45:36;7.40;65.40
4209;DHT22;36320;48.860;2.380;2022-12-18T17:48:05;7.20;65.30
4209;DHT22;36320;48.860;2.380;2022-12-18T17:50:32;7.40;66.40
4209;DHT22;36320;48.860;2.380;2022-12-18T17:52:58;7.30;66.40
4209;DHT22;36320;48.860;2.380;2022-12-18T17:55:25;7.40;66.00
4209;DHT22;36320;48.860;2.380;2022-12-18T17:57:52;7.60;66.30
4209;DHT22;36320;48.860;2.380;2022-12-18T18:00:18;7.50;66.40
4209;DHT22;36320;48.860;2.380;2022-12-18T18:02:45;7.50;66.50
4209;DHT22;36320;48.860;2.380;2022-12-18T18:05:14;7.50;66.60
4209;DHT22;36320;48.860;2.380;2022-12-18T18:07:40;7.60;66.80
4209;DHT22;36320;48.860;2.380;2022-12-18T18:10:06;7.60;66.90
4209;DHT22;36320;48.860;2.380;2022-12-18T18:12:33;7.60;67.00
4209;DHT22;36320;48.860;2.380;2022-12-18T18:15:17;7.70;67.20